createdAt,value
2022-10-11T00:02:47.445Z,102499.41
2022-10-11T00:07:52.182Z,102496.34
2022-10-11T00:12:55.118Z,102494.06
2022-10-11T00:18:01.040Z,102499.06
2022-10-11T00:23:07.734Z,102509.28
2022-10-11T00:28:10.739Z,102507.13
2022-10-11T00:33:13.693Z,102514.72
2022-10-11T00:38:18.440Z,102516.97
2022-10-11T00:43:24.477Z,102517.56
2022-10-11T00:48:34.430Z,102527.66
2022-10-11T00:53:38.730Z,102530.16
2022-10-11T00:58:42.608Z,102540.59
2022-10-11T01:03:46.190Z,102542.75
2022-10-11T01:08:53.095Z,102540.56
2022-10-11T01:14:11.967Z,102535.91
2022-10-11T01:19:31.204Z,102546.91
2022-10-11T01:25:02.864Z,102536.81
2022-10-11T01:30:26.134Z,102543.06
2022-10-11T01:35:34.830Z,102550.53
2022-10-11T01:40:43.449Z,102546.66
2022-10-11T01:45:51.724Z,102550.75
2022-10-11T01:50:56.944Z,102552.75
2022-10-11T01:56:09.884Z,102556.03
2022-10-11T02:01:23.562Z,102552.03
2022-10-11T02:06:33.859Z,102557.00
2022-10-11T02:11:37.878Z,102557.44
2022-10-11T02:16:47.386Z,102554.59
2022-10-11T02:21:55.712Z,102556.94
2022-10-11T02:27:01.272Z,102560.34
2022-10-11T02:32:07.146Z,102558.94
2022-10-11T02:37:16.651Z,102562.09
2022-10-11T02:42:26.474Z,102559.13
2022-10-11T02:47:32.631Z,102551.81
2022-10-11T02:52:35.784Z,102564.91
2022-10-11T02:57:38.738Z,102568.31
2022-10-11T03:02:43.056Z,102570.00
2022-10-11T03:07:46.335Z,102568.06
2022-10-11T03:12:49.218Z,102571.59
2022-10-11T03:17:53.525Z,102578.25
2022-10-11T03:22:56.627Z,102567.81
2022-10-11T03:27:59.480Z,102575.88
2022-10-11T03:33:04.262Z,102584.75
2022-10-11T03:38:11.110Z,102590.88
2022-10-11T03:43:15.856Z,102587.34
2022-10-11T03:48:20.475Z,102590.53
2022-10-11T03:53:23.466Z,102597.19
2022-10-11T03:58:26.336Z,102594.97
2022-10-11T04:03:30.916Z,102599.03
2022-10-11T04:08:34.050Z,102604.25
2022-10-11T04:13:37.746Z,102603.63
2022-10-11T04:18:42.422Z,102608.94
2022-10-11T04:23:45.452Z,102609.97
2022-10-11T04:28:49.633Z,102615.34
2022-10-11T04:33:54.056Z,102623.44
2022-10-11T04:38:57.059Z,102626.81
2022-10-11T04:44:00.078Z,102631.09
2022-10-11T04:49:04.326Z,102634.94
2022-10-11T04:54:07.201Z,102633.47
2022-10-11T04:59:10.248Z,102629.41
2022-10-11T05:04:14.643Z,102626.91
2022-10-11T05:09:17.519Z,102629.94
2022-10-11T05:14:20.710Z,102641.84
2022-10-11T05:19:24.967Z,102637.75
2022-10-11T05:24:29.060Z,102642.47
2022-10-11T05:29:32.021Z,102646.66
2022-10-11T05:34:36.348Z,102646.38
2022-10-11T05:39:39.492Z,102651.09
2022-10-11T05:44:42.818Z,102654.59
2022-10-11T05:49:47.188Z,102655.41
2022-10-11T05:54:50.281Z,102659.94
2022-10-11T05:59:53.158Z,102660.47
2022-10-11T06:04:57.513Z,102662.28
2022-10-11T06:10:00.688Z,102669.09
2022-10-11T06:15:04.007Z,102680.84
2022-10-11T06:20:09.883Z,102678.50
2022-10-11T06:25:13.041Z,102685.28
2022-10-11T06:30:15.964Z,102692.03
2022-10-11T06:35:20.371Z,102697.63
2022-10-11T06:40:23.347Z,102702.97
2022-10-11T06:45:26.594Z,102705.41
2022-10-11T06:50:58.067Z,102708.53
2022-10-11T06:55:53.730Z,102710.69
2022-10-11T07:01:00.321Z,102719.41
2022-10-11T07:06:06.785Z,102713.09
2022-10-11T07:11:11.881Z,102721.31
2022-10-11T07:16:14.955Z,102722.28
2022-10-11T07:21:20.485Z,102734.75
2022-10-11T07:26:23.459Z,102737.34
2022-10-11T07:31:27.357Z,102742.13
2022-10-11T07:36:31.815Z,102750.44
2022-10-11T07:41:34.956Z,102750.50
2022-10-11T07:46:37.991Z,102754.75
2022-10-11T07:51:42.520Z,102761.59
2022-10-11T07:56:45.510Z,102754.72
2022-10-11T08:01:48.607Z,102761.69
2022-10-11T08:06:53.612Z,102752.16
2022-10-11T08:11:56.575Z,102761.53
2022-10-11T08:16:59.710Z,102766.78
2022-10-11T08:22:04.451Z,102770.66
2022-10-11T08:27:07.398Z,102775.22
2022-10-11T08:32:12.326Z,102779.44
2022-10-11T08:37:16.788Z,102779.41
2022-10-11T08:42:28.961Z,102784.66
2022-10-11T08:47:36.584Z,102784.25
2022-10-11T08:52:49.509Z,102785.03
2022-10-11T08:57:55.860Z,102797.75
2022-10-11T09:03:09.488Z,102799.72
2022-10-11T09:08:22.527Z,102799.03
2022-10-11T09:13:43.756Z,102789.84
2022-10-11T09:19:17.904Z,102789.00
2022-10-11T09:24:39.026Z,102786.16
2022-10-11T09:29:55.591Z,102790.19
2022-10-11T09:35:02.844Z,102793.00
2022-10-11T09:40:21.500Z,102792.56
2022-10-11T09:45:25.161Z,102788.50
2022-10-11T09:50:30.739Z,102791.19
2022-10-11T09:55:40.586Z,102788.84
2022-10-11T10:00:43.637Z,102791.91
2022-10-11T10:05:46.673Z,102792.44
2022-10-11T10:11:00.459Z,102790.53
2022-10-11T10:16:04.313Z,102788.72
2022-10-11T10:21:13.417Z,102795.38
2022-10-11T10:26:19.921Z,102783.63
2022-10-11T10:31:24.625Z,102789.88
2022-10-11T10:36:30.557Z,102782.97
2022-10-11T10:41:36.026Z,102787.66
2022-10-11T10:46:55.850Z,102774.94
2022-10-11T10:52:19.889Z,102770.91
2022-10-11T10:57:29.631Z,102767.97
2022-10-11T11:02:42.164Z,102759.97
2022-10-11T11:07:50.413Z,102766.66
2022-10-11T11:13:06.580Z,102758.19
2022-10-11T11:18:26.756Z,102757.03
2022-10-11T11:23:41.794Z,102756.94
2022-10-11T11:29:06.001Z,102764.59
2022-10-11T11:34:21.767Z,102753.09
2022-10-11T11:39:27.462Z,102748.91
2022-10-11T11:44:33.934Z,102745.13
2022-10-11T11:49:39.537Z,102732.22
2022-10-11T11:54:49.696Z,102727.78
2022-10-11T12:00:00.730Z,102727.59
2022-10-11T12:05:06.438Z,102720.44
2022-10-11T12:10:27.300Z,102716.91
2022-10-11T12:15:31.723Z,102715.25
2022-10-11T12:20:38.121Z,102714.94
2022-10-11T12:25:44.771Z,102713.13
2022-10-11T12:30:54.607Z,102705.97
2022-10-11T12:36:05.679Z,102700.72
2022-10-11T12:41:45.974Z,102693.22
2022-10-11T12:47:28.355Z,102696.03
2022-10-11T12:52:40.356Z,102693.88
2022-10-11T12:58:00.879Z,102685.84
2022-10-11T13:03:31.806Z,102688.16
2022-10-11T13:08:40.272Z,102688.41
2022-10-11T13:13:47.242Z,102681.81
2022-10-11T13:18:56.752Z,102685.56
2022-10-11T13:24:01.795Z,102681.63
2022-10-11T13:29:04.917Z,102680.00
2022-10-11T13:34:13.727Z,102675.38
2022-10-11T13:39:31.221Z,102676.84
2022-10-11T13:44:35.469Z,102673.53
2022-10-11T13:49:40.251Z,102673.63
2022-10-11T13:54:56.090Z,102676.34
2022-10-11T14:00:02.419Z,102672.00
2022-10-11T14:05:27.158Z,102665.81
2022-10-11T14:10:30.774Z,102672.38
2022-10-11T14:15:35.733Z,102660.31
2022-10-11T14:20:41.837Z,102656.28
2022-10-11T14:25:44.865Z,102655.81
2022-10-11T14:30:48.134Z,102648.94
2022-10-11T14:35:52.823Z,102645.66
2022-10-11T14:40:55.749Z,102651.38
2022-10-11T14:45:58.778Z,102654.53
2022-10-11T14:51:04.440Z,102657.53
2022-10-11T14:56:08.310Z,102651.03
2022-10-11T15:01:14.042Z,102650.03
2022-10-11T15:06:21.767Z,102645.25
2022-10-11T15:11:25.104Z,102642.06
2022-10-11T15:16:28.313Z,102638.84
2022-10-11T15:21:33.290Z,102635.50
2022-10-11T15:26:36.277Z,102631.31
2022-10-11T15:31:39.483Z,102626.28
2022-10-11T15:36:43.910Z,102627.28
2022-10-11T15:41:46.888Z,102615.19
2022-10-11T15:46:49.968Z,102608.38
2022-10-11T15:51:54.258Z,102616.59
2022-10-11T15:56:57.203Z,102608.53
2022-10-11T16:02:00.153Z,102615.50
2022-10-11T16:07:04.552Z,102613.97
2022-10-11T16:12:08.084Z,102610.97
2022-10-11T16:17:11.071Z,102608.47
2022-10-11T16:22:15.796Z,102615.06
2022-10-11T16:27:19.102Z,102618.94
2022-10-11T16:32:22.857Z,102612.94
2022-10-11T16:37:27.322Z,102615.88
2022-10-11T16:42:31.095Z,102616.88
2022-10-11T16:47:34.224Z,102616.03
2022-10-11T16:52:38.677Z,102616.97
2022-10-11T16:57:41.680Z,102622.22
2022-10-11T17:02:44.919Z,102619.38
2022-10-11T17:07:49.261Z,102625.66
2022-10-11T17:12:52.174Z,102636.22
2022-10-11T17:17:56.585Z,102633.59
2022-10-11T17:23:00.957Z,102634.53
2022-10-11T17:28:03.950Z,102633.88
2022-10-11T17:33:07.026Z,102631.16
2022-10-11T17:38:11.590Z,102637.25
2022-10-11T17:43:15.893Z,102635.50
2022-10-11T17:48:18.938Z,102632.13
2022-10-11T17:53:23.406Z,102636.66
2022-10-11T17:58:27.610Z,102635.13
2022-10-11T18:03:30.608Z,102625.59
2022-10-11T18:08:40.244Z,102636.28
2022-10-11T18:13:46.471Z,102637.47
2022-10-11T18:18:50.227Z,102636.78
2022-10-11T18:23:55.166Z,102631.03
2022-10-11T18:28:58.152Z,102637.47
2022-10-11T18:34:01.233Z,102632.44
2022-10-11T18:39:08.302Z,102645.91
2022-10-11T18:44:15.195Z,102629.56
2022-10-11T18:49:18.433Z,102635.22
2022-10-11T18:54:22.839Z,102630.28
2022-10-11T18:59:25.831Z,102631.50
2022-10-11T19:04:33.256Z,102626.69
2022-10-11T19:09:38.146Z,102626.06
2022-10-11T19:14:41.089Z,102609.69
2022-10-11T19:19:44.390Z,102612.09
2022-10-11T19:24:48.800Z,102610.69
2022-10-11T19:29:52.179Z,102608.06
2022-10-11T19:34:55.335Z,102612.69
2022-10-11T19:39:59.940Z,102610.56
2022-10-11T19:45:03.102Z,102614.19
2022-10-11T19:50:07.065Z,102608.66
2022-10-11T19:55:11.837Z,102612.19
2022-10-11T20:00:16.164Z,102611.75
2022-10-11T20:05:19.793Z,102614.06
2022-10-11T20:10:24.618Z,102619.78
2022-10-11T20:15:27.679Z,102611.53
2022-10-11T20:20:32.103Z,102612.81
2022-10-11T20:25:37.016Z,102610.47
2022-10-11T20:30:43.815Z,102609.00
2022-10-11T20:35:57.393Z,102615.75
2022-10-11T20:41:06.485Z,102616.13
2022-10-11T20:46:14.398Z,102615.47
2022-10-11T20:51:18.475Z,102617.66
2022-10-11T20:56:23.541Z,102612.81
2022-10-11T21:01:28.182Z,102622.94
2022-10-11T21:06:32.691Z,102614.44
2022-10-11T21:11:37.004Z,102619.56
2022-10-11T21:16:40.159Z,102626.19
2022-10-11T21:21:43.857Z,102623.72
2022-10-11T21:26:48.159Z,102626.53
2022-10-11T21:31:51.046Z,102626.09
2022-10-11T21:36:53.957Z,102622.91
2022-10-11T21:41:58.391Z,102626.88
2022-10-11T21:47:07.045Z,102627.22
2022-10-11T21:52:11.043Z,102627.00
2022-10-11T21:57:15.346Z,102621.19
2022-10-11T22:02:18.468Z,102624.38
2022-10-11T22:07:21.385Z,102620.63
2022-10-11T22:12:25.594Z,102610.63
2022-10-11T22:17:28.467Z,102604.91
2022-10-11T22:22:31.509Z,102614.25
2022-10-11T22:27:35.831Z,102607.84
2022-10-11T22:32:38.808Z,102605.22
2022-10-11T22:37:41.994Z,102608.53
2022-10-11T22:42:46.378Z,102612.63
2022-10-11T22:47:49.301Z,102612.38
2022-10-11T22:52:52.159Z,102607.97
2022-10-11T22:57:56.433Z,102604.44
2022-10-11T23:02:59.719Z,102599.75
2022-10-11T23:08:02.783Z,102596.13
2022-10-11T23:13:07.092Z,102596.69
2022-10-11T23:18:10.075Z,102594.53
2022-10-11T23:23:12.999Z,102589.16
2022-10-11T23:28:17.297Z,102588.00
2022-10-11T23:33:20.658Z,102578.22
2022-10-11T23:38:23.775Z,102577.19
2022-10-11T23:43:28.687Z,102581.41
2022-10-11T23:48:31.607Z,102584.03
2022-10-11T23:53:34.979Z,102580.38
2022-10-11T23:58:39.642Z,102584.81
